sensor_id;sensor_type;location;lat;lon;timestamp;temperature;humidity
56046;DHT22;41913;51.030;3.706;2022-10-16T00:01:12;14.40;99.90
56046;DHT22;41913;51.030;3.706;2022-10-16T00:03:38;14.40;99.90
56046;DHT22;41913;51.030;3.706;2022-10-16T00:06:05;14.30;99.90
56046;DHT22;41913;51.030;3.706;2022-10-16T00:08:31;14.30;99.90
56046;DHT22;41913;51.030;3.706;2022-10-16T00:11:14;14.40;99.90
56046;DHT22;41913;51.030;3.706;2022-10-16T00:13:43;14.30;99.90
56046;DHT22;41913;51.030;3.706;2022-10-16T00:16:12;14.30;99.90
56046;DHT22;41913;51.030;3.706;2022-10-16T00:18:40;14.30;99.90
56046;DHT22;41913;51.030;3.706;2022-10-16T00:21:11;14.30;99.90
56046;DHT22;41913;51.030;3.706;2022-10-16T00:23:40;14.00;99.90
56046;DHT22;41913;51.030;3.706;2022-10-16T00:26:09;14.00;99.90
56046;DHT22;41913;51.030;3.706;2022-10-16T00:28:39;14.00;99.90
56046;DHT22;41913;51.030;3.706;2022-10-16T00:31:12;13.90;99.90
56046;DHT22;41913;51.030;3.706;2022-10-16T00:33:40;13.90;99.90
56046;DHT22;41913;51.030;3.706;2022-10-16T00:36:08;13.90;99.90
56046;DHT22;41913;51.030;3.706;2022-10-16T00:38:44;13.90;99.90
56046;DHT22;41913;51.030;3.706;2022-10-16T00:41:20;13.90;99.90
56046;DHT22;41913;51.030;3.706;2022-10-16T00:43:48;13.90;99.90
56046;DHT22;41913;51.030;3.706;2022-10-16T00:46:23;13.90;99.90
56046;DHT22;41913;51.030;3.706;2022-10-16T00:51:51;14.00;99.90
56046;DHT22;41913;51.030;3.706;2022-10-16T00:54:20;14.00;99.90
56046;DHT22;41913;51.030;3.706;2022-10-16T00:56:46;14.00;99.90
56046;DHT22;41913;51.030;3.706;2022-10-16T00:59:21;14.10;99.90
56046;DHT22;41913;51.030;3.706;2022-10-16T01:01:53;14.00;99.90
56046;DHT22;41913;51.030;3.706;2022-10-16T01:04:20;13.90;99.90
56046;DHT22;41913;51.030;3.706;2022-10-16T01:09:35;14.00;99.90
56046;DHT22;41913;51.030;3.706;2022-10-16T01:12:39;14.10;99.90
56046;DHT22;41913;51.030;3.706;2022-10-16T01:18:00;14.10;99.90
56046;DHT22;41913;51.030;3.706;2022-10-16T01:20:42;14.00;99.90
56046;DHT22;41913;51.030;3.706;2022-10-16T01:28:45;13.90;99.90
56046;DHT22;41913;51.030;3.706;2022-10-16T01:31:23;14.00;99.90
56046;DHT22;41913;51.030;3.706;2022-10-16T01:33:58;13.80;99.90
56046;DHT22;41913;51.030;3.706;2022-10-16T01:36:39;13.90;99.90
56046;DHT22;41913;51.030;3.706;2022-10-16T01:39:12;13.90;99.90
56046;DHT22;41913;51.030;3.706;2022-10-16T01:44:08;13.80;99.90
56046;DHT22;41913;51.030;3.706;2022-10-16T01:46:36;13.90;99.90
56046;DHT22;41913;51.030;3.706;2022-10-16T01:49:09;13.90;99.90
56046;DHT22;41913;51.030;3.706;2022-10-16T01:51:38;13.90;99.90
56046;DHT22;41913;51.030;3.706;2022-10-16T01:54:18;13.80;99.90
56046;DHT22;41913;51.030;3.706;2022-10-16T01:56:47;13.80;99.90
56046;DHT22;41913;51.030;3.706;2022-10-16T01:59:27;13.80;99.90
56046;DHT22;41913;51.030;3.706;2022-10-16T02:01:58;14.00;99.90
56046;DHT22;41913;51.030;3.706;2022-10-16T02:04:38;13.90;99.90
56046;DHT22;41913;51.030;3.706;2022-10-16T02:07:04;13.90;99.90
56046;DHT22;41913;51.030;3.706;2022-10-16T02:09:32;13.80;99.90
56046;DHT22;41913;51.030;3.706;2022-10-16T02:11:59;13.80;99.90
56046;DHT22;41913;51.030;3.706;2022-10-16T02:14:37;13.80;99.90
56046;DHT22;41913;51.030;3.706;2022-10-16T02:17:13;13.80;99.90
56046;DHT22;41913;51.030;3.706;2022-10-16T02:19:41;13.80;99.90
56046;DHT22;41913;51.030;3.706;2022-10-16T02:22:12;13.80;99.90
56046;DHT22;41913;51.030;3.706;2022-10-16T02:29:56;13.60;99.90
56046;DHT22;41913;51.030;3.706;2022-10-16T02:32:27;13.70;99.90
56046;DHT22;41913;51.030;3.706;2022-10-16T02:34:58;13.70;99.90
56046;DHT22;41913;51.030;3.706;2022-10-16T02:37:26;13.60;99.90
56046;DHT22;41913;51.030;3.706;2022-10-16T02:39:53;13.60;99.90
56046;DHT22;41913;51.030;3.706;2022-10-16T02:42:21;13.60;99.90
56046;DHT22;41913;51.030;3.706;2022-10-16T02:45:10;13.60;99.90
56046;DHT22;41913;51.030;3.706;2022-10-16T02:47:39;13.70;99.90
56046;DHT22;41913;51.030;3.706;2022-10-16T02:50:05;13.80;99.90
56046;DHT22;41913;51.030;3.706;2022-10-16T02:52:30;13.70;99.90
56046;DHT22;41913;51.030;3.706;2022-10-16T02:55:00;13.70;99.90
56046;DHT22;41913;51.030;3.706;2022-10-16T02:57:34;13.80;99.90
56046;DHT22;41913;51.030;3.706;2022-10-16T03:02:33;13.70;99.90
56046;DHT22;41913;51.030;3.706;2022-10-16T03:10:27;13.70;99.90
56046;DHT22;41913;51.030;3.706;2022-10-16T03:12:53;13.60;99.90
56046;DHT22;41913;51.030;3.706;2022-10-16T03:15:20;13.70;99.90
56046;DHT22;41913;51.030;3.706;2022-10-16T03:17:53;13.70;99.90
56046;DHT22;41913;51.030;3.706;2022-10-16T03:20:19;13.70;99.90
56046;DHT22;41913;51.030;3.706;2022-10-16T03:22:46;13.60;99.90
56046;DHT22;41913;51.030;3.706;2022-10-16T03:25:13;13.70;99.90
56046;DHT22;41913;51.030;3.706;2022-10-16T03:27:40;13.60;99.90
56046;DHT22;41913;51.030;3.706;2022-10-16T03:30:07;13.60;99.90
56046;DHT22;41913;51.030;3.706;2022-10-16T03:32:35;13.60;99.90
56046;DHT22;41913;51.030;3.706;2022-10-16T03:35:03;13.60;99.90
56046;DHT22;41913;51.030;3.706;2022-10-16T03:37:32;13.60;99.90
56046;DHT22;41913;51.030;3.706;2022-10-16T03:40:00;13.70;99.90
56046;DHT22;41913;51.030;3.706;2022-10-16T03:42:32;13.70;99.90
56046;DHT22;41913;51.030;3.706;2022-10-16T03:44:59;13.70;99.90
56046;DHT22;41913;51.030;3.706;2022-10-16T03:47:32;13.70;99.90
56046;DHT22;41913;51.030;3.706;2022-10-16T03:49:59;13.60;99.90
56046;DHT22;41913;51.030;3.706;2022-10-16T03:52:26;13.70;99.90
56046;DHT22;41913;51.030;3.706;2022-10-16T03:54:53;13.60;99.90
56046;DHT22;41913;51.030;3.706;2022-10-16T03:57:22;13.60;99.90
56046;DHT22;41913;51.030;3.706;2022-10-16T03:59:50;13.50;99.90
56046;DHT22;41913;51.030;3.706;2022-10-16T04:02:19;13.40;99.90
56046;DHT22;41913;51.030;3.706;2022-10-16T04:04:47;13.40;99.90
56046;DHT22;41913;51.030;3.706;2022-10-16T04:07:16;13.40;99.90
56046;DHT22;41913;51.030;3.706;2022-10-16T04:09:45;13.50;99.90
56046;DHT22;41913;51.030;3.706;2022-10-16T04:12:14;13.50;99.90
56046;DHT22;41913;51.030;3.706;2022-10-16T04:14:43;13.40;99.90
56046;DHT22;41913;51.030;3.706;2022-10-16T04:17:11;13.40;99.90
56046;DHT22;41913;51.030;3.706;2022-10-16T04:19:39;13.40;99.90
56046;DHT22;41913;51.030;3.706;2022-10-16T04:22:12;13.40;99.90
56046;DHT22;41913;51.030;3.706;2022-10-16T04:24:39;13.40;99.90
56046;DHT22;41913;51.030;3.706;2022-10-16T04:27:06;13.40;99.90
56046;DHT22;41913;51.030;3.706;2022-10-16T04:29:48;13.40;99.90
56046;DHT22;41913;51.030;3.706;2022-10-16T04:32:15;13.40;99.90
56046;DHT22;41913;51.030;3.706;2022-10-16T04:34:54;13.40;99.90
56046;DHT22;41913;51.030;3.706;2022-10-16T04:37:25;13.30;99.90
56046;DHT22;41913;51.030;3.706;2022-10-16T04:39:51;13.40;99.90
56046;DHT22;41913;51.030;3.706;2022-10-16T04:42:17;13.30;99.90
56046;DHT22;41913;51.030;3.706;2022-10-16T04:44:43;13.30;99.90
56046;DHT22;41913;51.030;3.706;2022-10-16T04:47:13;13.40;99.90
56046;DHT22;41913;51.030;3.706;2022-10-16T04:49:39;13.30;99.90
56046;DHT22;41913;51.030;3.706;2022-10-16T04:52:04;13.30;99.90
56046;DHT22;41913;51.030;3.706;2022-10-16T04:54:31;13.30;99.90
56046;DHT22;41913;51.030;3.706;2022-10-16T04:57:04;13.20;99.90
56046;DHT22;41913;51.030;3.706;2022-10-16T04:59:39;13.20;99.90
56046;DHT22;41913;51.030;3.706;2022-10-16T05:02:13;13.30;99.90
56046;DHT22;41913;51.030;3.706;2022-10-16T05:04:40;13.40;99.90
56046;DHT22;41913;51.030;3.706;2022-10-16T05:07:08;13.10;99.90
56046;DHT22;41913;51.030;3.706;2022-10-16T05:09:37;13.30;99.90
56046;DHT22;41913;51.030;3.706;2022-10-16T05:12:10;13.30;99.90
56046;DHT22;41913;51.030;3.706;2022-10-16T05:14:36;13.30;99.90
56046;DHT22;41913;51.030;3.706;2022-10-16T05:17:03;13.30;99.90
56046;DHT22;41913;51.030;3.706;2022-10-16T05:19:30;13.40;99.90
56046;DHT22;41913;51.030;3.706;2022-10-16T05:22:01;13.30;99.90
56046;DHT22;41913;51.030;3.706;2022-10-16T05:24:30;13.40;99.90
56046;DHT22;41913;51.030;3.706;2022-10-16T05:26:57;13.50;99.90
56046;DHT22;41913;51.030;3.706;2022-10-16T05:29:23;13.40;99.90
56046;DHT22;41913;51.030;3.706;2022-10-16T05:34:18;13.60;99.90
56046;DHT22;41913;51.030;3.706;2022-10-16T05:36:44;13.70;99.90
56046;DHT22;41913;51.030;3.706;2022-10-16T05:39:12;13.90;99.90
56046;DHT22;41913;51.030;3.706;2022-10-16T05:41:40;14.00;99.90
56046;DHT22;41913;51.030;3.706;2022-10-16T05:47:09;13.90;99.90
56046;DHT22;41913;51.030;3.706;2022-10-16T05:49:45;13.90;99.90
56046;DHT22;41913;51.030;3.706;2022-10-16T05:52:12;13.90;99.90
56046;DHT22;41913;51.030;3.706;2022-10-16T05:57:12;13.70;99.90
56046;DHT22;41913;51.030;3.706;2022-10-16T05:59:38;13.70;99.90
56046;DHT22;41913;51.030;3.706;2022-10-16T06:02:05;13.50;99.90
56046;DHT22;41913;51.030;3.706;2022-10-16T06:04:30;13.50;99.90
56046;DHT22;41913;51.030;3.706;2022-10-16T06:09:26;13.40;99.90
56046;DHT22;41913;51.030;3.706;2022-10-16T06:11:56;13.40;99.90
56046;DHT22;41913;51.030;3.706;2022-10-16T06:14:22;13.20;99.90
56046;DHT22;41913;51.030;3.706;2022-10-16T06:16:49;13.30;99.90
56046;DHT22;41913;51.030;3.706;2022-10-16T06:19:15;13.20;99.90
56046;DHT22;41913;51.030;3.706;2022-10-16T06:21:42;13.10;99.90
56046;DHT22;41913;51.030;3.706;2022-10-16T06:24:10;13.10;99.90
56046;DHT22;41913;51.030;3.706;2022-10-16T06:26:38;13.10;99.90
56046;DHT22;41913;51.030;3.706;2022-10-16T06:29:05;13.10;99.90
56046;DHT22;41913;51.030;3.706;2022-10-16T06:31:31;13.20;99.90
56046;DHT22;41913;51.030;3.706;2022-10-16T06:34:12;13.20;99.90
56046;DHT22;41913;51.030;3.706;2022-10-16T06:36:50;13.30;99.90
56046;DHT22;41913;51.030;3.706;2022-10-16T06:39:17;13.50;99.90
56046;DHT22;41913;51.030;3.706;2022-10-16T06:41:44;13.70;99.90
56046;DHT22;41913;51.030;3.706;2022-10-16T06:44:15;13.60;99.90
56046;DHT22;41913;51.030;3.706;2022-10-16T06:46:42;13.60;99.90
56046;DHT22;41913;51.030;3.706;2022-10-16T06:49:13;13.60;99.90
56046;DHT22;41913;51.030;3.706;2022-10-16T06:51:44;13.50;99.90
56046;DHT22;41913;51.030;3.706;2022-10-16T06:54:10;13.50;99.90
56046;DHT22;41913;51.030;3.706;2022-10-16T06:56:41;13.60;99.90
56046;DHT22;41913;51.030;3.706;2022-10-16T06:59:07;13.60;99.90
56046;DHT22;41913;51.030;3.706;2022-10-16T07:04:20;13.70;99.90
56046;DHT22;41913;51.030;3.706;2022-10-16T07:06:46;13.80;99.90
56046;DHT22;41913;51.030;3.706;2022-10-16T07:09:11;13.80;99.90
56046;DHT22;41913;51.030;3.706;2022-10-16T07:11:38;13.70;99.90
56046;DHT22;41913;51.030;3.706;2022-10-16T07:14:26;13.70;99.90
56046;DHT22;41913;51.030;3.706;2022-10-16T07:16:53;13.80;99.90
56046;DHT22;41913;51.030;3.706;2022-10-16T07:19:19;13.90;99.90
56046;DHT22;41913;51.030;3.706;2022-10-16T07:21:51;13.90;99.90
56046;DHT22;41913;51.030;3.706;2022-10-16T07:27:05;13.90;99.90
56046;DHT22;41913;51.030;3.706;2022-10-16T07:29:40;14.00;99.90
56046;DHT22;41913;51.030;3.706;2022-10-16T07:32:11;14.00;99.90
56046;DHT22;41913;51.030;3.706;2022-10-16T07:34:38;13.90;99.90
56046;DHT22;41913;51.030;3.706;2022-10-16T07:37:04;14.00;99.90
56046;DHT22;41913;51.030;3.706;2022-10-16T07:39:31;14.20;99.90
56046;DHT22;41913;51.030;3.706;2022-10-16T07:42:03;14.20;99.90
56046;DHT22;41913;51.030;3.706;2022-10-16T07:44:29;14.20;99.90
56046;DHT22;41913;51.030;3.706;2022-10-16T07:47:01;14.30;99.90
56046;DHT22;41913;51.030;3.706;2022-10-16T07:49:29;14.30;99.90
56046;DHT22;41913;51.030;3.706;2022-10-16T07:52:01;14.40;99.90
56046;DHT22;41913;51.030;3.706;2022-10-16T07:57:15;14.70;99.90
56046;DHT22;41913;51.030;3.706;2022-10-16T07:59:46;15.60;99.90
56046;DHT22;41913;51.030;3.706;2022-10-16T08:02:13;16.40;99.90
56046;DHT22;41913;51.030;3.706;2022-10-16T08:04:46;17.70;99.90
56046;DHT22;41913;51.030;3.706;2022-10-16T08:07:11;19.50;99.90
56046;DHT22;41913;51.030;3.706;2022-10-16T08:12:07;21.40;99.90
56046;DHT22;41913;51.030;3.706;2022-10-16T08:14:34;22.20;99.90
56046;DHT22;41913;51.030;3.706;2022-10-16T08:17:00;23.00;99.90
56046;DHT22;41913;51.030;3.706;2022-10-16T08:19:27;23.80;99.90
56046;DHT22;41913;51.030;3.706;2022-10-16T08:21:53;24.70;98.80
56046;DHT22;41913;51.030;3.706;2022-10-16T08:24:19;25.60;97.30
56046;DHT22;41913;51.030;3.706;2022-10-16T08:26:44;25.70;96.30
56046;DHT22;41913;51.030;3.706;2022-10-16T08:29:10;25.90;96.50
56046;DHT22;41913;51.030;3.706;2022-10-16T08:31:41;25.20;95.70
56046;DHT22;41913;51.030;3.706;2022-10-16T08:34:13;24.50;96.70
56046;DHT22;41913;51.030;3.706;2022-10-16T08:36:39;23.90;97.00
56046;DHT22;41913;51.030;3.706;2022-10-16T08:39:05;23.20;98.10
56046;DHT22;41913;51.030;3.706;2022-10-16T08:49:15;21.70;99.90
56046;DHT22;41913;51.030;3.706;2022-10-16T08:51:40;22.10;99.90
56046;DHT22;41913;51.030;3.706;2022-10-16T08:56:53;22.80;99.90
56046;DHT22;41913;51.030;3.706;2022-10-16T08:59:20;23.20;99.90
56046;DHT22;41913;51.030;3.706;2022-10-16T09:01:46;23.30;99.00
56046;DHT22;41913;51.030;3.706;2022-10-16T09:12:22;23.70;98.30
56046;DHT22;41913;51.030;3.706;2022-10-16T09:14:56;24.40;97.80
56046;DHT22;41913;51.030;3.706;2022-10-16T09:19:59;25.90;96.60
56046;DHT22;41913;51.030;3.706;2022-10-16T09:22:28;26.50;95.60
56046;DHT22;41913;51.030;3.706;2022-10-16T09:24:59;27.20;94.40
56046;DHT22;41913;51.030;3.706;2022-10-16T09:27:26;27.30;94.00
56046;DHT22;41913;51.030;3.706;2022-10-16T09:29:53;27.80;93.50
56046;DHT22;41913;51.030;3.706;2022-10-16T09:32:21;28.20;92.90
56046;DHT22;41913;51.030;3.706;2022-10-16T09:34:48;28.40;92.60
56046;DHT22;41913;51.030;3.706;2022-10-16T09:37:17;28.50;92.30
56046;DHT22;41913;51.030;3.706;2022-10-16T09:39:47;28.40;92.00
56046;DHT22;41913;51.030;3.706;2022-10-16T09:42:14;28.60;91.60
56046;DHT22;41913;51.030;3.706;2022-10-16T09:44:41;29.00;91.30
56046;DHT22;41913;51.030;3.706;2022-10-16T09:47:21;29.40;90.60
56046;DHT22;41913;51.030;3.706;2022-10-16T09:50:19;29.70;90.10
56046;DHT22;41913;51.030;3.706;2022-10-16T09:52:39;30.00;89.50
56046;DHT22;41913;51.030;3.706;2022-10-16T09:55:15;29.60;89.20
56046;DHT22;41913;51.030;3.706;2022-10-16T09:57:50;29.50;89.20
56046;DHT22;41913;51.030;3.706;2022-10-16T10:00:17;29.50;88.10
56046;DHT22;41913;51.030;3.706;2022-10-16T10:02:46;29.40;88.10
56046;DHT22;41913;51.030;3.706;2022-10-16T10:05:23;29.60;88.20
56046;DHT22;41913;51.030;3.706;2022-10-16T10:10:30;29.20;87.30
56046;DHT22;41913;51.030;3.706;2022-10-16T10:12:57;29.30;88.00
56046;DHT22;41913;51.030;3.706;2022-10-16T10:15:33;29.00;87.00
56046;DHT22;41913;51.030;3.706;2022-10-16T10:18:00;28.70;88.20
56046;DHT22;41913;51.030;3.706;2022-10-16T10:20:29;29.40;87.60
56046;DHT22;41913;51.030;3.706;2022-10-16T10:22:56;29.50;87.20
56046;DHT22;41913;51.030;3.706;2022-10-16T10:28:03;29.50;85.80
56046;DHT22;41913;51.030;3.706;2022-10-16T10:33:24;29.90;84.80
56046;DHT22;41913;51.030;3.706;2022-10-16T10:36:04;28.80;86.10
56046;DHT22;41913;51.030;3.706;2022-10-16T10:46:41;26.80;88.70
56046;DHT22;41913;51.030;3.706;2022-10-16T10:54:39;25.60;90.60
56046;DHT22;41913;51.030;3.706;2022-10-16T10:57:15;25.10;90.70
56046;DHT22;41913;51.030;3.706;2022-10-16T10:59:51;24.50;91.90
56046;DHT22;41913;51.030;3.706;2022-10-16T11:02:26;24.20;92.50
56046;DHT22;41913;51.030;3.706;2022-10-16T11:07:47;23.70;92.60
56046;DHT22;41913;51.030;3.706;2022-10-16T11:10:16;23.60;93.30
56046;DHT22;41913;51.030;3.706;2022-10-16T11:12:44;23.30;93.10
56046;DHT22;41913;51.030;3.706;2022-10-16T11:17:59;23.10;93.50
56046;DHT22;41913;51.030;3.706;2022-10-16T11:20:23;23.10;93.90
56046;DHT22;41913;51.030;3.706;2022-10-16T11:22:54;22.90;93.50
56046;DHT22;41913;51.030;3.706;2022-10-16T11:30:17;23.20;93.00
56046;DHT22;41913;51.030;3.706;2022-10-16T11:36:01;22.60;94.00
56046;DHT22;41913;51.030;3.706;2022-10-16T11:38:15;22.60;94.50
56046;DHT22;41913;51.030;3.706;2022-10-16T11:40:42;22.40;94.50
56046;DHT22;41913;51.030;3.706;2022-10-16T11:45:54;21.30;95.20
56046;DHT22;41913;51.030;3.706;2022-10-16T11:48:41;20.90;95.60
56046;DHT22;41913;51.030;3.706;2022-10-16T11:53:44;21.00;96.00
56046;DHT22;41913;51.030;3.706;2022-10-16T11:56:14;20.90;95.80
56046;DHT22;41913;51.030;3.706;2022-10-16T11:58:57;20.90;96.00
56046;DHT22;41913;51.030;3.706;2022-10-16T12:01:31;20.90;96.20
56046;DHT22;41913;51.030;3.706;2022-10-16T12:06:50;20.90;95.80
56046;DHT22;41913;51.030;3.706;2022-10-16T12:09:30;20.80;95.30
56046;DHT22;41913;51.030;3.706;2022-10-16T12:11:58;20.90;95.50
56046;DHT22;41913;51.030;3.706;2022-10-16T12:20:18;21.40;94.90
56046;DHT22;41913;51.030;3.706;2022-10-16T12:22:49;21.50;94.70
56046;DHT22;41913;51.030;3.706;2022-10-16T12:25:21;21.60;94.90
56046;DHT22;41913;51.030;3.706;2022-10-16T12:27:53;21.50;94.60
56046;DHT22;41913;51.030;3.706;2022-10-16T12:30:20;21.50;94.40
56046;DHT22;41913;51.030;3.706;2022-10-16T12:32:53;21.60;94.60
56046;DHT22;41913;51.030;3.706;2022-10-16T12:35:23;21.20;94.70
56046;DHT22;41913;51.030;3.706;2022-10-16T12:37:49;21.20;95.40
56046;DHT22;41913;51.030;3.706;2022-10-16T12:43:10;21.20;96.10
56046;DHT22;41913;51.030;3.706;2022-10-16T12:45:36;21.40;96.50
56046;DHT22;41913;51.030;3.706;2022-10-16T12:48:04;21.50;95.70
56046;DHT22;41913;51.030;3.706;2022-10-16T12:50:34;21.90;94.90
56046;DHT22;41913;51.030;3.706;2022-10-16T12:53:02;22.00;94.20
56046;DHT22;41913;51.030;3.706;2022-10-16T13:06:28;21.90;95.00
56046;DHT22;41913;51.030;3.706;2022-10-16T13:24:11;21.60;95.10
56046;DHT22;41913;51.030;3.706;2022-10-16T13:29:31;21.50;95.30
56046;DHT22;41913;51.030;3.706;2022-10-16T13:32:01;21.80;95.30
56046;DHT22;41913;51.030;3.706;2022-10-16T13:34:32;21.90;95.20
56046;DHT22;41913;51.030;3.706;2022-10-16T13:36:58;22.00;95.20
56046;DHT22;41913;51.030;3.706;2022-10-16T13:39:28;22.30;95.40
56046;DHT22;41913;51.030;3.706;2022-10-16T13:42:04;22.60;95.40
56046;DHT22;41913;51.030;3.706;2022-10-16T13:44:35;22.80;94.40
56046;DHT22;41913;51.030;3.706;2022-10-16T13:47:04;22.90;94.70
56046;DHT22;41913;51.030;3.706;2022-10-16T13:49:31;22.40;94.90
56046;DHT22;41913;51.030;3.706;2022-10-16T13:51:59;22.10;94.90
56046;DHT22;41913;51.030;3.706;2022-10-16T13:54:26;21.80;95.20
56046;DHT22;41913;51.030;3.706;2022-10-16T13:56:55;21.50;95.60
56046;DHT22;41913;51.030;3.706;2022-10-16T13:59:23;20.50;96.50
56046;DHT22;41913;51.030;3.706;2022-10-16T14:01:53;20.30;97.10
56046;DHT22;41913;51.030;3.706;2022-10-16T14:04:20;20.50;97.30
56046;DHT22;41913;51.030;3.706;2022-10-16T14:06:49;20.70;97.10
56046;DHT22;41913;51.030;3.706;2022-10-16T14:11:46;21.10;97.00
56046;DHT22;41913;51.030;3.706;2022-10-16T14:14:13;21.10;97.10
56046;DHT22;41913;51.030;3.706;2022-10-16T14:16:42;21.30;97.00
56046;DHT22;41913;51.030;3.706;2022-10-16T14:19:18;21.30;96.90
56046;DHT22;41913;51.030;3.706;2022-10-16T14:21:44;21.40;97.10
56046;DHT22;41913;51.030;3.706;2022-10-16T14:24:13;21.00;96.80
56046;DHT22;41913;51.030;3.706;2022-10-16T14:26:43;20.30;97.50
56046;DHT22;41913;51.030;3.706;2022-10-16T14:29:13;20.20;98.30
56046;DHT22;41913;51.030;3.706;2022-10-16T14:31:39;20.30;98.10
56046;DHT22;41913;51.030;3.706;2022-10-16T14:34:29;20.50;98.00
56046;DHT22;41913;51.030;3.706;2022-10-16T14:36:54;20.50;97.60
56046;DHT22;41913;51.030;3.706;2022-10-16T14:39:20;20.30;97.60
56046;DHT22;41913;51.030;3.706;2022-10-16T14:41:48;20.10;97.50
56046;DHT22;41913;51.030;3.706;2022-10-16T14:44:14;19.80;96.60
56046;DHT22;41913;51.030;3.706;2022-10-16T14:46:41;19.70;96.80
56046;DHT22;41913;51.030;3.706;2022-10-16T14:51:38;19.90;96.50
56046;DHT22;41913;51.030;3.706;2022-10-16T14:54:17;20.10;96.20
56046;DHT22;41913;51.030;3.706;2022-10-16T15:01:48;20.00;96.70
56046;DHT22;41913;51.030;3.706;2022-10-16T15:04:16;19.90;96.70
56046;DHT22;41913;51.030;3.706;2022-10-16T15:06:46;20.00;96.90
56046;DHT22;41913;51.030;3.706;2022-10-16T15:09:17;20.00;96.90
56046;DHT22;41913;51.030;3.706;2022-10-16T15:11:44;19.90;97.00
56046;DHT22;41913;51.030;3.706;2022-10-16T15:14:12;19.90;97.30
56046;DHT22;41913;51.030;3.706;2022-10-16T15:16:40;20.10;97.40
56046;DHT22;41913;51.030;3.706;2022-10-16T15:19:23;20.20;97.10
56046;DHT22;41913;51.030;3.706;2022-10-16T15:21:50;20.20;97.10
56046;DHT22;41913;51.030;3.706;2022-10-16T15:24:18;20.30;97.10
56046;DHT22;41913;51.030;3.706;2022-10-16T15:26:46;20.30;97.10
56046;DHT22;41913;51.030;3.706;2022-10-16T15:29:12;20.30;97.20
56046;DHT22;41913;51.030;3.706;2022-10-16T15:31:38;20.20;97.30
56046;DHT22;41913;51.030;3.706;2022-10-16T15:34:09;19.80;97.80
56046;DHT22;41913;51.030;3.706;2022-10-16T15:36:38;19.70;98.10
56046;DHT22;41913;51.030;3.706;2022-10-16T15:39:14;19.80;98.10
56046;DHT22;41913;51.030;3.706;2022-10-16T15:41:41;19.80;98.40
56046;DHT22;41913;51.030;3.706;2022-10-16T15:44:10;19.50;99.00
56046;DHT22;41913;51.030;3.706;2022-10-16T15:46:43;19.50;99.10
56046;DHT22;41913;51.030;3.706;2022-10-16T15:49:08;19.50;99.30
56046;DHT22;41913;51.030;3.706;2022-10-16T15:51:41;19.40;99.50
56046;DHT22;41913;51.030;3.706;2022-10-16T15:54:08;19.40;99.50
56046;DHT22;41913;51.030;3.706;2022-10-16T15:56:33;19.30;99.70
56046;DHT22;41913;51.030;3.706;2022-10-16T16:01:34;19.30;99.90
56046;DHT22;41913;51.030;3.706;2022-10-16T16:04:02;19.30;99.90
56046;DHT22;41913;51.030;3.706;2022-10-16T16:06:31;19.40;99.90
56046;DHT22;41913;51.030;3.706;2022-10-16T16:08:59;19.40;99.90
56046;DHT22;41913;51.030;3.706;2022-10-16T16:11:25;19.20;99.90
56046;DHT22;41913;51.030;3.706;2022-10-16T16:13:51;19.10;99.90
56046;DHT22;41913;51.030;3.706;2022-10-16T16:16:18;18.80;99.90
56046;DHT22;41913;51.030;3.706;2022-10-16T16:18:48;18.60;99.90
56046;DHT22;41913;51.030;3.706;2022-10-16T16:21:17;18.60;99.90
56046;DHT22;41913;51.030;3.706;2022-10-16T16:23:46;18.80;99.90
56046;DHT22;41913;51.030;3.706;2022-10-16T16:26:24;18.90;99.90
56046;DHT22;41913;51.030;3.706;2022-10-16T16:28:51;19.10;99.90
56046;DHT22;41913;51.030;3.706;2022-10-16T16:31:20;19.00;99.90
56046;DHT22;41913;51.030;3.706;2022-10-16T16:33:48;19.00;99.90
56046;DHT22;41913;51.030;3.706;2022-10-16T16:36:19;19.00;99.90
56046;DHT22;41913;51.030;3.706;2022-10-16T16:38:48;19.00;99.90
56046;DHT22;41913;51.030;3.706;2022-10-16T16:41:17;18.90;99.90
56046;DHT22;41913;51.030;3.706;2022-10-16T16:43:45;18.90;99.90
56046;DHT22;41913;51.030;3.706;2022-10-16T16:46:13;18.80;99.90
56046;DHT22;41913;51.030;3.706;2022-10-16T16:48:39;18.70;99.90
56046;DHT22;41913;51.030;3.706;2022-10-16T16:51:06;18.60;99.90
56046;DHT22;41913;51.030;3.706;2022-10-16T16:53:35;18.50;99.90
56046;DHT22;41913;51.030;3.706;2022-10-16T16:56:07;18.60;99.90
56046;DHT22;41913;51.030;3.706;2022-10-16T16:58:32;18.70;99.90
56046;DHT22;41913;51.030;3.706;2022-10-16T17:00:59;18.80;99.90
56046;DHT22;41913;51.030;3.706;2022-10-16T17:03:34;18.90;99.90
56046;DHT22;41913;51.030;3.706;2022-10-16T17:06:02;19.00;99.90
56046;DHT22;41913;51.030;3.706;2022-10-16T17:08:29;18.80;99.90
56046;DHT22;41913;51.030;3.706;2022-10-16T17:10:57;18.70;99.90
56046;DHT22;41913;51.030;3.706;2022-10-16T17:13:24;18.80;99.90
56046;DHT22;41913;51.030;3.706;2022-10-16T17:15:52;18.90;99.90
56046;DHT22;41913;51.030;3.706;2022-10-16T17:18:18;18.90;99.90
56046;DHT22;41913;51.030;3.706;2022-10-16T17:20:44;18.90;99.90
56046;DHT22;41913;51.030;3.706;2022-10-16T17:23:10;18.80;99.90
56046;DHT22;41913;51.030;3.706;2022-10-16T17:25:37;18.70;99.90
56046;DHT22;41913;51.030;3.706;2022-10-16T17:28:03;18.60;99.90
56046;DHT22;41913;51.030;3.706;2022-10-16T17:30:31;18.50;99.90
56046;DHT22;41913;51.030;3.706;2022-10-16T17:33:00;18.50;99.90
56046;DHT22;41913;51.030;3.706;2022-10-16T17:35:29;18.30;99.90
56046;DHT22;41913;51.030;3.706;2022-10-16T17:38:00;18.20;99.90
56046;DHT22;41913;51.030;3.706;2022-10-16T17:40:27;18.20;99.90
56046;DHT22;41913;51.030;3.706;2022-10-16T17:42:54;18.10;99.90
56046;DHT22;41913;51.030;3.706;2022-10-16T17:45:21;18.10;99.90
56046;DHT22;41913;51.030;3.706;2022-10-16T17:47:48;17.90;99.90
56046;DHT22;41913;51.030;3.706;2022-10-16T17:50:14;17.90;99.90
56046;DHT22;41913;51.030;3.706;2022-10-16T17:52:40;17.80;99.90
56046;DHT22;41913;51.030;3.706;2022-10-16T17:55:09;17.80;99.90
56046;DHT22;41913;51.030;3.706;2022-10-16T17:57:44;17.80;99.90
56046;DHT22;41913;51.030;3.706;2022-10-16T18:03:14;17.90;99.90
56046;DHT22;41913;51.030;3.706;2022-10-16T18:05:40;18.00;99.90
56046;DHT22;41913;51.030;3.706;2022-10-16T18:08:05;17.90;99.90
56046;DHT22;41913;51.030;3.706;2022-10-16T18:10:31;17.70;99.90
56046;DHT22;41913;51.030;3.706;2022-10-16T18:15:26;17.70;99.90
56046;DHT22;41913;51.030;3.706;2022-10-16T18:17:58;17.70;99.90
56046;DHT22;41913;51.030;3.706;2022-10-16T18:20:24;17.50;99.90
56046;DHT22;41913;51.030;3.706;2022-10-16T18:22:49;17.50;99.90
56046;DHT22;41913;51.030;3.706;2022-10-16T18:25:18;17.60;99.90
56046;DHT22;41913;51.030;3.706;2022-10-16T18:27:43;17.50;99.90
56046;DHT22;41913;51.030;3.706;2022-10-16T18:30:11;17.60;99.90
56046;DHT22;41913;51.030;3.706;2022-10-16T18:32:41;17.50;99.90
56046;DHT22;41913;51.030;3.706;2022-10-16T18:35:12;17.50;99.90